createdAt,value
2018-11-13T00:00:30.382Z,2.57
2018-11-13T00:02:57.791Z,2.53
2018-11-13T00:05:25.385Z,2.47
2018-11-13T00:07:52.554Z,2.43
2018-11-13T00:10:19.750Z,2.57
2018-11-13T00:12:46.899Z,3.17
2018-11-13T00:15:14.086Z,2.20
2018-11-13T00:17:41.459Z,2.80
2018-11-13T00:20:10.726Z,2.50
2018-11-13T00:22:37.939Z,2.80
2018-11-13T00:25:05.948Z,2.73
2018-11-13T00:27:33.192Z,2.20
2018-11-13T00:30:00.307Z,2.37
2018-11-13T00:32:27.481Z,2.50
2018-11-13T00:34:54.638Z,2.63
2018-11-13T00:37:21.811Z,2.50
2018-11-13T00:39:49.017Z,2.17
2018-11-13T00:42:16.219Z,2.43
2018-11-13T00:44:43.399Z,2.57
2018-11-13T00:47:10.555Z,2.63
2018-11-13T00:49:37.732Z,2.40
2018-11-13T00:52:05.232Z,2.13
2018-11-13T00:54:32.552Z,2.67
2018-11-13T00:56:59.743Z,2.00
2018-11-13T00:59:26.946Z,3.00
2018-11-13T01:01:54.121Z,2.40
2018-11-13T01:04:21.294Z,2.47
2018-11-13T01:06:48.474Z,1.80
2018-11-13T01:09:15.650Z,2.33
2018-11-13T01:11:42.816Z,1.60
2018-11-13T01:14:09.991Z,2.40
2018-11-13T01:16:37.154Z,1.57
2018-11-13T01:19:04.617Z,1.80
2018-11-13T01:21:32.792Z,1.60
2018-11-13T01:23:59.983Z,1.90
2018-11-13T01:26:27.159Z,1.37
2018-11-13T01:28:54.347Z,1.87
2018-11-13T01:31:21.535Z,1.60
2018-11-13T01:33:48.738Z,1.10
2018-11-13T01:36:15.907Z,1.07
2018-11-13T01:38:43.090Z,1.00
2018-11-13T01:41:10.250Z,0.90
2018-11-13T01:43:37.434Z,0.90
2018-11-13T01:46:04.834Z,1.00
2018-11-13T01:48:32.020Z,1.53
2018-11-13T01:50:59.203Z,1.30
2018-11-13T01:53:26.401Z,1.23
2018-11-13T01:55:53.583Z,1.00
2018-11-13T01:58:20.747Z,1.17
2018-11-13T02:00:47.936Z,1.30
2018-11-13T02:03:15.147Z,1.50
2018-11-13T02:05:42.327Z,1.10
2018-11-13T02:08:09.499Z,1.30
2018-11-13T02:10:36.698Z,1.10
2018-11-13T02:13:03.883Z,1.20
2018-11-13T02:15:31.079Z,1.30
2018-11-13T02:17:58.258Z,1.30
2018-11-13T02:20:25.435Z,1.40
2018-11-13T02:22:52.601Z,1.20
2018-11-13T02:25:20.566Z,1.30
2018-11-13T02:27:48.142Z,1.40
2018-11-13T02:30:19.660Z,1.40
2018-11-13T02:32:47.337Z,1.70
2018-11-13T02:35:15.024Z,2.00
2018-11-13T02:37:42.458Z,1.53
2018-11-13T02:40:09.664Z,1.53
2018-11-13T02:42:37.551Z,1.73
2018-11-13T02:45:06.055Z,1.73
2018-11-13T02:47:33.266Z,1.60
2018-11-13T02:50:00.432Z,1.10
2018-11-13T02:52:27.626Z,1.43
2018-11-13T02:54:54.824Z,1.13
2018-11-13T02:57:22.031Z,1.27
2018-11-13T02:59:49.203Z,1.23
2018-11-13T03:02:16.370Z,1.00
2018-11-13T03:04:43.582Z,0.90
2018-11-13T03:07:10.747Z,0.80
2018-11-13T03:09:37.943Z,1.13
2018-11-13T03:12:05.231Z,1.10
2018-11-13T03:14:32.436Z,0.83
2018-11-13T03:16:59.722Z,0.93
2018-11-13T03:19:26.924Z,1.00
2018-11-13T03:21:54.096Z,0.90
2018-11-13T03:24:21.294Z,0.80
2018-11-13T03:26:48.484Z,0.60
2018-11-13T03:29:15.678Z,0.80
2018-11-13T03:31:42.850Z,1.03
2018-11-13T03:34:10.060Z,1.00
2018-11-13T03:36:37.339Z,0.80
2018-11-13T03:39:06.031Z,1.10
2018-11-13T03:41:33.248Z,0.87
2018-11-13T03:44:00.431Z,0.90
2018-11-13T03:46:27.599Z,1.00
2018-11-13T03:48:54.808Z,0.80
2018-11-13T03:51:21.986Z,0.63
2018-11-13T03:53:49.171Z,0.70
2018-11-13T03:56:16.347Z,1.00
2018-11-13T03:58:43.529Z,0.60
2018-11-13T04:01:10.707Z,0.77
2018-11-13T04:03:37.911Z,0.97
2018-11-13T04:06:05.094Z,0.70
2018-11-13T04:08:32.267Z,0.70
2018-11-13T04:10:59.456Z,0.60
2018-11-13T04:13:26.639Z,0.70
2018-11-13T04:15:53.845Z,0.70
2018-11-13T04:18:20.994Z,0.60
2018-11-13T04:20:48.191Z,0.53
2018-11-13T04:23:15.350Z,0.60
2018-11-13T04:25:42.544Z,0.70
2018-11-13T04:28:09.739Z,0.50
2018-11-13T04:30:36.944Z,0.53
2018-11-13T04:33:04.143Z,0.53
2018-11-13T04:35:31.298Z,0.50
2018-11-13T04:37:58.491Z,0.60
2018-11-13T04:40:25.702Z,0.80
2018-11-13T04:42:53.397Z,0.60
2018-11-13T04:45:21.991Z,0.50
2018-11-13T04:47:49.759Z,0.60
2018-11-13T04:50:17.821Z,0.60
2018-11-13T04:52:45.052Z,0.50
2018-11-13T04:55:12.534Z,0.63
2018-11-13T04:57:40.906Z,0.50
2018-11-13T05:00:08.994Z,0.80
2018-11-13T05:02:36.342Z,0.57
2018-11-13T05:05:03.544Z,0.57
2018-11-13T05:07:30.711Z,0.60
2018-11-13T05:09:57.901Z,0.70
2018-11-13T05:12:25.292Z,0.63
2018-11-13T05:14:52.644Z,0.60
2018-11-13T05:17:19.839Z,0.50
2018-11-13T05:19:47.036Z,0.70
2018-11-13T05:22:14.206Z,0.80
2018-11-13T05:24:41.398Z,0.60
2018-11-13T05:27:08.567Z,0.70
2018-11-13T05:29:35.792Z,0.70
2018-11-13T05:32:03.282Z,0.77
2018-11-13T05:34:30.502Z,0.80
2018-11-13T05:36:57.719Z,0.77
2018-11-13T05:39:24.940Z,0.60
2018-11-13T05:41:52.188Z,1.03
2018-11-13T05:44:19.322Z,0.87
2018-11-13T05:46:46.494Z,0.80
2018-11-13T05:49:13.662Z,1.00
2018-11-13T05:51:40.906Z,1.00
2018-11-13T05:54:08.091Z,0.87
2018-11-13T05:56:35.245Z,0.90
2018-11-13T05:59:02.649Z,0.83
2018-11-13T06:01:29.837Z,0.80
2018-11-13T06:03:56.993Z,1.00
2018-11-13T06:06:24.189Z,1.10
2018-11-13T06:08:51.383Z,1.00
2018-11-13T06:11:18.539Z,1.10
2018-11-13T06:13:45.731Z,1.00
2018-11-13T06:16:12.898Z,1.33
2018-11-13T06:18:40.077Z,1.00
2018-11-13T06:21:07.264Z,1.20
2018-11-13T06:23:34.411Z,1.67
2018-11-13T06:26:02.118Z,1.30
2018-11-13T06:28:29.411Z,1.40
2018-11-13T06:30:56.563Z,1.30
2018-11-13T06:33:23.815Z,1.43
2018-11-13T06:35:50.995Z,1.70
2018-11-13T06:38:18.186Z,1.80
2018-11-13T06:40:45.346Z,2.00
2018-11-13T06:43:12.531Z,1.93
2018-11-13T06:45:39.743Z,2.13
2018-11-13T06:48:06.891Z,2.10
2018-11-13T06:50:34.074Z,2.17
2018-11-13T06:53:01.284Z,2.13
2018-11-13T06:55:33.827Z,1.97
2018-11-13T06:58:01.067Z,2.07
2018-11-13T07:00:28.222Z,2.20
2018-11-13T07:02:55.527Z,2.20
2018-11-13T07:05:22.701Z,2.03
2018-11-13T07:07:49.862Z,2.03
2018-11-13T07:10:18.319Z,2.23
2018-11-13T07:12:46.714Z,1.73
2018-11-13T07:15:15.415Z,1.93
2018-11-13T07:17:43.989Z,1.80
2018-11-13T07:20:11.175Z,1.83
2018-11-13T07:22:38.369Z,1.50
2018-11-13T07:25:05.699Z,1.40
2018-11-13T07:27:32.883Z,1.40
2018-11-13T07:30:00.125Z,1.63
2018-11-13T07:32:27.307Z,1.10
2018-11-13T07:34:54.458Z,1.30
2018-11-13T07:37:21.639Z,1.40
2018-11-13T07:39:48.839Z,1.03
2018-11-13T07:42:16.011Z,1.13
2018-11-13T07:44:44.285Z,1.00
2018-11-13T07:47:11.529Z,0.80
2018-11-13T07:49:38.639Z,0.97
2018-11-13T07:52:05.878Z,1.03
2018-11-13T07:54:35.123Z,0.90
2018-11-13T07:57:02.775Z,1.10
2018-11-13T07:59:29.966Z,1.10
2018-11-13T08:01:57.123Z,1.20
2018-11-13T08:04:24.303Z,1.07
2018-11-13T08:06:51.629Z,1.03
2018-11-13T08:09:18.670Z,1.07
2018-11-13T08:11:45.847Z,1.20
2018-11-13T08:14:13.030Z,0.90
2018-11-13T08:16:40.215Z,1.27
2018-11-13T08:19:07.411Z,0.80
2018-11-13T08:21:34.556Z,0.70
2018-11-13T08:24:01.886Z,0.80
2018-11-13T08:26:29.066Z,0.80
2018-11-13T08:28:56.409Z,0.80
2018-11-13T08:31:23.480Z,0.53
2018-11-13T08:33:50.588Z,0.80
2018-11-13T08:36:17.733Z,0.80
2018-11-13T08:38:44.906Z,0.67
2018-11-13T08:41:12.076Z,0.70
2018-11-13T08:43:39.578Z,0.70
2018-11-13T08:46:06.739Z,0.63
2018-11-13T08:48:34.388Z,0.60
2018-11-13T08:51:02.215Z,0.60
2018-11-13T08:53:29.366Z,0.60
2018-11-13T08:55:56.566Z,0.70
2018-11-13T08:58:23.771Z,0.67
2018-11-13T09:00:50.924Z,0.60
2018-11-13T09:03:18.079Z,0.67
2018-11-13T09:05:45.260Z,0.90
2018-11-13T09:08:12.410Z,0.60
2018-11-13T09:10:40.348Z,0.70
2018-11-13T09:13:07.533Z,0.60
2018-11-13T09:15:35.087Z,0.70
2018-11-13T09:18:03.200Z,0.70
2018-11-13T09:20:30.608Z,0.60
2018-11-13T09:22:58.387Z,0.80
2018-11-13T09:25:25.905Z,0.70
2018-11-13T09:27:53.361Z,0.80
2018-11-13T09:30:21.900Z,0.80
2018-11-13T09:32:49.281Z,0.73
2018-11-13T09:35:17.271Z,0.80
2018-11-13T09:37:45.370Z,1.17
2018-11-13T09:40:14.365Z,0.80
2018-11-13T09:42:42.148Z,0.90
2018-11-13T09:45:09.831Z,0.90
2018-11-13T09:47:37.088Z,0.77
2018-11-13T09:50:04.826Z,0.60
2018-11-13T09:52:32.007Z,0.90
2018-11-13T09:54:59.183Z,1.17
2018-11-13T09:57:26.351Z,0.80
2018-11-13T09:59:53.514Z,1.00
2018-11-13T10:02:21.329Z,1.20
2018-11-13T10:04:48.411Z,1.20
2018-11-13T10:07:15.046Z,1.20
2018-11-13T10:09:42.564Z,0.80
2018-11-13T10:12:09.788Z,0.73
2018-11-13T10:14:37.036Z,1.07
2018-11-13T10:17:04.328Z,0.80
2018-11-13T10:19:31.441Z,1.27
2018-11-13T10:21:58.596Z,1.27
2018-11-13T10:24:25.917Z,1.03
2018-11-13T10:26:53.323Z,1.00
2018-11-13T10:29:20.488Z,1.20
2018-11-13T10:31:47.648Z,0.90
2018-11-13T10:34:15.001Z,0.90
2018-11-13T10:36:42.187Z,1.00
2018-11-13T10:39:10.129Z,1.03
2018-11-13T10:41:37.344Z,1.20
2018-11-13T10:44:04.471Z,1.13
2018-11-13T10:46:31.734Z,1.10
2018-11-13T10:49:00.387Z,0.80
2018-11-13T10:51:28.134Z,1.00
2018-11-13T10:53:55.327Z,1.00
2018-11-13T10:56:22.506Z,1.10
2018-11-13T10:58:49.799Z,1.33
2018-11-13T11:01:22.534Z,1.20
2018-11-13T11:04:01.114Z,0.90
2018-11-13T11:06:29.160Z,1.30
2018-11-13T11:08:56.339Z,1.20
2018-11-13T11:11:23.511Z,1.30
2018-11-13T11:13:50.805Z,1.00
2018-11-13T11:16:17.827Z,1.00
2018-11-13T11:18:45.085Z,1.37
2018-11-13T11:21:12.191Z,1.33
2018-11-13T11:23:39.568Z,1.20
2018-11-13T11:26:06.892Z,1.10
2018-11-13T11:28:34.038Z,1.40
2018-11-13T11:31:01.693Z,1.00
2018-11-13T11:33:28.819Z,1.30
2018-11-13T11:35:55.986Z,1.40
2018-11-13T11:38:23.175Z,1.30
2018-11-13T11:40:50.321Z,1.27
2018-11-13T11:43:17.513Z,1.40
2018-11-13T11:45:44.689Z,1.30
2018-11-13T11:48:12.017Z,1.30
2018-11-13T11:50:39.175Z,1.20
2018-11-13T11:53:06.350Z,1.20
2018-11-13T11:55:33.515Z,1.03
2018-11-13T11:58:00.667Z,1.10
2018-11-13T12:00:31.454Z,1.30
2018-11-13T12:02:58.558Z,1.47
2018-11-13T12:05:25.700Z,1.50
2018-11-13T12:07:52.868Z,1.87
2018-11-13T12:10:20.414Z,1.77
2018-11-13T12:12:47.554Z,1.17
2018-11-13T12:15:14.751Z,1.20
2018-11-13T12:17:42.487Z,1.63
2018-11-13T12:20:10.923Z,1.83
2018-11-13T12:22:38.097Z,1.43
2018-11-13T12:25:06.285Z,1.20
2018-11-13T12:27:33.674Z,1.30
2018-11-13T12:30:08.583Z,1.50
2018-11-13T12:32:35.751Z,1.10
2018-11-13T12:35:03.165Z,1.40
2018-11-13T12:37:30.343Z,1.40
2018-11-13T12:39:57.551Z,1.50
2018-11-13T12:42:24.746Z,1.97
2018-11-13T12:44:51.890Z,1.27
2018-11-13T12:47:19.079Z,1.37
2018-11-13T12:49:46.248Z,1.80
2018-11-13T12:52:16.536Z,1.50
2018-11-13T12:54:44.003Z,2.00
2018-11-13T12:57:11.184Z,1.70
2018-11-13T12:59:38.365Z,1.50
2018-11-13T13:02:06.103Z,1.20
2018-11-13T13:04:33.258Z,1.87
2018-11-13T13:07:00.442Z,2.30
2018-11-13T13:09:27.587Z,1.37
2018-11-13T13:11:54.787Z,1.27
2018-11-13T13:14:21.942Z,1.60
2018-11-13T13:16:49.115Z,1.40
2018-11-13T13:19:16.262Z,1.30
2018-11-13T13:21:43.853Z,1.87
2018-11-13T13:24:11.028Z,1.43
2018-11-13T13:26:38.560Z,1.40
2018-11-13T13:29:06.608Z,1.30
2018-11-13T13:31:33.826Z,1.63
2018-11-13T13:34:01.390Z,1.90
2018-11-13T13:36:28.558Z,1.83
2018-11-13T13:38:55.731Z,1.90
2018-11-13T13:41:22.928Z,1.90
2018-11-13T13:43:50.110Z,1.70
2018-11-13T13:46:17.303Z,1.43
2018-11-13T13:48:44.499Z,1.70
2018-11-13T13:51:11.737Z,1.80
2018-11-13T13:53:38.923Z,1.67
2018-11-13T13:56:06.159Z,1.80
2018-11-13T13:58:33.357Z,1.50
2018-11-13T14:01:00.734Z,1.80
2018-11-13T14:03:27.758Z,1.70
2018-11-13T14:05:54.978Z,1.97
2018-11-13T14:08:22.110Z,1.73
2018-11-13T14:10:49.308Z,2.20
2018-11-13T14:13:17.706Z,1.80
2018-11-13T14:15:44.947Z,1.80
2018-11-13T14:18:12.535Z,1.70
2018-11-13T14:20:39.725Z,1.73
2018-11-13T14:23:06.936Z,1.60
2018-11-13T14:25:34.127Z,1.43
2018-11-13T14:28:01.328Z,1.70
2018-11-13T14:30:29.598Z,2.17
2018-11-13T14:32:58.110Z,2.63
2018-11-13T14:35:25.279Z,2.13
2018-11-13T14:37:52.720Z,1.60
2018-11-13T14:40:24.906Z,1.40
2018-11-13T14:42:52.133Z,1.43
2018-11-13T14:45:20.228Z,1.97
2018-11-13T14:47:48.074Z,1.63
2018-11-13T14:50:15.878Z,1.67
2018-11-13T14:52:43.258Z,1.70
2018-11-13T14:55:12.702Z,1.80
2018-11-13T14:57:39.885Z,2.03
2018-11-13T15:00:09.751Z,1.80
2018-11-13T15:02:36.933Z,3.57
2018-11-13T15:05:04.674Z,2.10
2018-11-13T15:07:31.861Z,2.43
2018-11-13T15:09:59.013Z,1.90
2018-11-13T15:12:26.296Z,2.00
2018-11-13T15:14:53.471Z,1.77
2018-11-13T15:17:20.643Z,2.03
2018-11-13T15:19:47.807Z,1.90
2018-11-13T15:22:15.025Z,2.40
2018-11-13T15:24:42.193Z,1.87
2018-11-13T15:27:09.399Z,1.70
2018-11-13T15:29:36.550Z,1.67
2018-11-13T15:32:03.746Z,1.83
2018-11-13T15:34:30.923Z,2.60
2018-11-13T15:36:58.126Z,1.80
2018-11-13T15:39:25.297Z,1.87
2018-11-13T15:41:52.448Z,1.70
2018-11-13T15:44:19.649Z,1.87
2018-11-13T15:46:46.807Z,1.83
2018-11-13T15:49:14.004Z,2.00
2018-11-13T15:51:41.310Z,1.97
2018-11-13T15:54:08.678Z,1.90
2018-11-13T15:56:35.807Z,1.87
2018-11-13T15:59:02.976Z,2.00
2018-11-13T16:01:30.208Z,2.10
2018-11-13T16:03:57.394Z,2.20
2018-11-13T16:06:24.655Z,2.20
2018-11-13T16:08:51.757Z,2.00
2018-11-13T16:11:18.959Z,2.13
2018-11-13T16:13:46.135Z,2.63
2018-11-13T16:16:13.334Z,2.40
2018-11-13T16:18:40.617Z,2.20
2018-11-13T16:21:07.784Z,2.67
2018-11-13T16:23:34.930Z,2.97
2018-11-13T16:26:02.311Z,2.40
2018-11-13T16:28:29.511Z,2.57
2018-11-13T16:30:56.769Z,1.93
2018-11-13T16:33:23.939Z,2.07
2018-11-13T16:35:51.129Z,1.83
2018-11-13T16:38:18.557Z,2.13
2018-11-13T16:40:45.498Z,2.80
2018-11-13T16:43:12.694Z,2.10
2018-11-13T16:45:39.880Z,2.30
2018-11-13T16:48:07.174Z,1.90
2018-11-13T16:50:35.535Z,2.20
2018-11-13T16:53:02.753Z,3.10
2018-11-13T16:55:35.336Z,2.60
2018-11-13T16:58:03.830Z,2.20
2018-11-13T17:00:31.084Z,2.27
2018-11-13T17:02:58.230Z,2.00
2018-11-13T17:05:26.214Z,2.20
2018-11-13T17:07:53.340Z,1.70
2018-11-13T17:10:22.973Z,1.93
2018-11-13T17:12:50.651Z,1.77
2018-11-13T17:15:19.042Z,2.20
2018-11-13T17:17:47.268Z,2.20
2018-11-13T17:20:14.805Z,1.70
2018-11-13T17:22:42.427Z,2.43
2018-11-13T17:25:10.722Z,2.23
2018-11-13T17:27:39.114Z,1.67
2018-11-13T17:30:09.367Z,2.00
2018-11-13T17:32:36.586Z,1.83
2018-11-13T17:35:03.809Z,2.00
2018-11-13T17:37:31.003Z,2.33
2018-11-13T17:39:58.171Z,1.90
2018-11-13T17:42:25.380Z,2.10
2018-11-13T17:44:52.722Z,2.30
2018-11-13T17:47:19.926Z,1.80
2018-11-13T17:49:47.104Z,1.93
2018-11-13T17:52:14.297Z,1.90
2018-11-13T17:54:41.482Z,1.77
2018-11-13T17:57:08.676Z,2.40
2018-11-13T17:59:35.925Z,2.40
2018-11-13T18:02:03.094Z,1.73
2018-11-13T18:04:30.465Z,2.57
2018-11-13T18:06:57.931Z,1.70
2018-11-13T18:09:25.108Z,1.87
2018-11-13T18:11:52.292Z,2.30
2018-11-13T18:14:19.541Z,1.80
2018-11-13T18:16:46.697Z,1.67
2018-11-13T18:19:13.901Z,2.63
2018-11-13T18:21:41.171Z,2.30
2018-11-13T18:24:08.279Z,3.20
2018-11-13T18:26:35.521Z,1.90
2018-11-13T18:29:02.856Z,2.20
2018-11-13T18:31:30.019Z,2.77
2018-11-13T18:33:57.207Z,2.60
2018-11-13T18:36:24.430Z,3.23
2018-11-13T18:38:51.832Z,2.50
2018-11-13T18:41:18.802Z,2.40
2018-11-13T18:43:45.978Z,2.73
2018-11-13T18:46:13.185Z,3.73
2018-11-13T18:48:40.390Z,3.10
2018-11-13T18:51:07.593Z,2.53
2018-11-13T18:53:34.817Z,3.53
2018-11-13T18:56:02.795Z,3.10
2018-11-13T18:58:29.963Z,3.00
2018-11-13T19:00:57.132Z,3.17
2018-11-13T19:03:24.315Z,2.80
2018-11-13T19:05:51.511Z,3.43
2018-11-13T19:08:18.670Z,2.70
2018-11-13T19:10:47.285Z,2.53
2018-11-13T19:13:16.094Z,2.10
2018-11-13T19:15:44.074Z,3.10
2018-11-13T19:18:11.577Z,2.90
2018-11-13T19:20:38.768Z,3.37
2018-11-13T19:23:06.277Z,2.73
2018-11-13T19:25:34.314Z,2.70
2018-11-13T19:28:01.794Z,3.67
2018-11-13T19:30:28.968Z,2.70
2018-11-13T19:32:56.158Z,2.77
2018-11-13T19:35:23.649Z,3.13
2018-11-13T19:37:50.738Z,2.80
2018-11-13T19:40:26.691Z,3.00
2018-11-13T19:42:54.635Z,2.97
2018-11-13T19:45:21.959Z,2.77
2018-11-13T19:47:49.234Z,2.63
2018-11-13T19:50:18.110Z,2.90
2018-11-13T19:52:45.302Z,2.43
2018-11-13T19:55:13.641Z,2.67
2018-11-13T19:57:41.550Z,2.90
2018-11-13T20:00:09.611Z,2.77
2018-11-13T20:02:37.239Z,2.40
2018-11-13T20:05:04.963Z,3.10
2018-11-13T20:07:32.166Z,2.53
2018-11-13T20:09:59.391Z,2.77
2018-11-13T20:12:26.552Z,2.77
2018-11-13T20:14:53.904Z,2.87
2018-11-13T20:17:21.070Z,3.00
2018-11-13T20:19:48.311Z,2.90
2018-11-13T20:22:15.514Z,2.80
2018-11-13T20:24:42.859Z,2.83
2018-11-13T20:27:10.267Z,3.70
2018-11-13T20:29:37.748Z,2.60
2018-11-13T20:32:04.963Z,3.30
2018-11-13T20:34:32.155Z,3.53
2018-11-13T20:36:59.346Z,3.20
2018-11-13T20:39:26.560Z,2.87
2018-11-13T20:41:54.000Z,4.10
2018-11-13T20:44:21.166Z,3.77
2018-11-13T20:46:48.410Z,3.23
2018-11-13T20:49:15.588Z,3.30
2018-11-13T20:51:42.914Z,3.47
2018-11-13T20:54:10.022Z,3.07
2018-11-13T20:56:37.187Z,4.37
2018-11-13T20:59:04.620Z,3.10
2018-11-13T21:01:31.778Z,3.43
2018-11-13T21:03:58.992Z,3.40
2018-11-13T21:06:26.163Z,3.40
2018-11-13T21:08:53.338Z,3.10
2018-11-13T21:11:20.524Z,3.00
2018-11-13T21:13:47.728Z,3.50
2018-11-13T21:16:14.973Z,3.70
2018-11-13T21:18:42.118Z,4.40
2018-11-13T21:21:09.286Z,3.67
2018-11-13T21:23:36.538Z,3.20
2018-11-13T21:26:03.709Z,3.80
2018-11-13T21:28:30.903Z,3.23
2018-11-13T21:30:58.066Z,3.37
2018-11-13T21:33:25.269Z,3.63
2018-11-13T21:35:52.465Z,2.90
2018-11-13T21:38:19.665Z,3.93
2018-11-13T21:40:46.850Z,4.10
2018-11-13T21:43:14.094Z,4.80
2018-11-13T21:45:41.287Z,3.50
2018-11-13T21:48:08.479Z,2.80
2018-11-13T21:50:35.667Z,3.30
2018-11-13T21:53:02.849Z,3.10
2018-11-13T21:55:30.215Z,3.10
2018-11-13T21:57:57.379Z,3.80
2018-11-13T22:00:26.052Z,3.43
2018-11-13T22:03:01.291Z,3.50
2018-11-13T22:05:29.351Z,3.57
2018-11-13T22:07:56.521Z,2.93
2018-11-13T22:10:23.726Z,3.50
2018-11-13T22:12:50.872Z,4.17
2018-11-13T22:15:19.382Z,3.43
2018-11-13T22:17:46.537Z,2.93
2018-11-13T22:20:14.914Z,2.93
2018-11-13T22:22:42.102Z,3.50
2018-11-13T22:25:10.239Z,3.33
2018-11-13T22:27:37.542Z,2.70
2018-11-13T22:30:04.847Z,2.93
2018-11-13T22:32:32.015Z,3.70
2018-11-13T22:34:59.200Z,3.50
2018-11-13T22:37:26.363Z,3.07
2018-11-13T22:39:53.621Z,3.67
2018-11-13T22:42:20.746Z,3.97
2018-11-13T22:44:47.894Z,3.30
2018-11-13T22:47:15.071Z,2.70
2018-11-13T22:49:42.238Z,3.57
2018-11-13T22:52:09.433Z,3.50
2018-11-13T22:54:36.575Z,3.43
2018-11-13T22:57:03.781Z,3.07
2018-11-13T22:59:30.923Z,3.10
2018-11-13T23:01:58.104Z,3.53
2018-11-13T23:04:25.245Z,3.37
2018-11-13T23:06:52.439Z,4.37
2018-11-13T23:09:19.589Z,2.83
2018-11-13T23:11:46.771Z,3.73
2018-11-13T23:14:13.941Z,3.70
2018-11-13T23:16:41.119Z,4.23
2018-11-13T23:19:08.293Z,3.57
2018-11-13T23:21:35.472Z,3.50
2018-11-13T23:24:02.670Z,3.70
2018-11-13T23:26:29.873Z,4.17
2018-11-13T23:28:57.031Z,3.60
2018-11-13T23:31:24.188Z,3.43
2018-11-13T23:33:51.405Z,3.37
2018-11-13T23:36:18.735Z,3.60
2018-11-13T23:38:45.771Z,3.40
2018-11-13T23:41:12.987Z,3.53
2018-11-13T23:43:40.187Z,4.57
2018-11-13T23:46:07.488Z,3.50
2018-11-13T23:48:35.058Z,3.20
2018-11-13T23:51:03.078Z,2.60
2018-11-13T23:53:30.275Z,4.90
2018-11-13T23:55:57.443Z,3.50
2018-11-13T23:58:24.610Z,3.27
